Time;durP1;ratioP1;P1;durP2;ratioP2;P2;SDS_P1;SDS_P2;PMS_P1;PMS_P2;Temp;Humidity;BMP_temperature;BMP_pressure;BME280_temperature;BME280_humidity;BME280_pressure;Samples;Min_cycle;Max_cycle;Signal;HPM_P1;HPM_P2
2023/01/28 00:01:40;;;;;;;23.65;15.55;;;1.60;77.90;;;;;;5075894;28;20070;-61
2023/01/28 00:04:05;;;;;;;21.70;14.40;;;1.50;77.90;;;;;;5070138;28;20052;-60
2023/01/28 00:06:31;;;;;;;22.30;15.25;;;1.50;78.00;;;;;;5070904;28;20040;-61
2023/01/28 00:08:57;;;;;;;22.20;14.43;;;1.40;78.00;;;;;;5078293;28;20355;-61
2023/01/28 00:11:22;;;;;;;24.83;16.58;;;1.40;78.00;;;;;;5080383;28;20032;-53
2023/01/28 00:13:52;;;;;;;22.65;15.15;;;1.30;77.90;;;;;;5079816;28;20563;-56
2023/01/28 00:16:19;;;;;;;22.77;15.52;;;1.30;78.10;;;;;;5070294;28;20036;-62
2023/01/28 00:18:45;;;;;;;18.63;14.30;;;1.30;78.10;;;;;;5076012;28;20125;-60
2023/01/28 00:21:12;;;;;;;20.27;13.93;;;1.20;78.10;;;;;;5066664;28;20117;-61
2023/01/28 00:23:40;;;;;;;21.80;14.27;;;1.20;78.00;;;;;;5080631;28;20046;-60
2023/01/28 00:26:10;;;;;;;20.23;14.40;;;1.20;78.10;;;;;;5062251;28;20071;-61
2023/01/28 00:28:36;;;;;;;23.00;14.60;;;1.30;78.10;;;;;;5073542;28;20032;-61
2023/01/28 00:31:15;;;;;;;22.98;16.02;;;1.20;77.90;;;;;;5076297;28;20042;-48
2023/01/28 00:33:42;;;;;;;20.88;14.20;;;1.20;77.90;;;;;;5072953;28;20361;-52
2023/01/28 00:36:08;;;;;;;22.48;14.63;;;1.20;77.90;;;;;;5064990;28;20124;-52
2023/01/28 00:38:34;;;;;;;20.92;13.88;;;1.10;78.00;;;;;;5070731;28;20095;-52
2023/01/28 00:41:11;;;;;;;22.45;15.30;;;1.00;77.90;;;;;;5080993;28;20028;-47
2023/01/28 00:43:37;;;;;;;26.27;16.85;;;1.00;77.90;;;;;;5069296;28;20037;-50
2023/01/28 00:46:06;;;;;;;21.83;13.60;;;1.00;78.00;;;;;;5072912;28;20029;-61
2023/01/28 00:48:34;;;;;;;23.70;15.93;;;0.90;78.00;;;;;;5071874;28;20059;-61
2023/01/28 00:51:00;;;;;;;22.10;15.07;;;0.90;78.00;;;;;;5074252;28;20363;-63
2023/01/28 00:53:26;;;;;;;22.73;15.30;;;0.90;78.00;;;;;;5073888;28;20075;-64
2023/01/28 00:55:53;;;;;;;22.75;15.75;;;0.80;77.80;;;;;;5074488;28;20028;-62
2023/01/28 00:58:19;;;;;;;23.25;15.50;;;0.80;77.80;;;;;;5085402;28;20389;-64
2023/01/28 01:00:45;;;;;;;21.77;15.18;;;0.70;77.90;;;;;;5078451;28;20032;-60
2023/01/28 01:03:10;;;;;;;17.95;13.32;;;0.60;78.30;;;;;;5072492;28;20098;-61
2023/01/28 01:05:36;;;;;;;22.98;15.38;;;0.60;78.40;;;;;;5068587;28;20036;-62
2023/01/28 01:08:02;;;;;;;21.23;14.88;;;0.50;78.40;;;;;;5082644;28;20028;-63
2023/01/28 01:10:28;;;;;;;23.27;15.88;;;0.50;78.60;;;;;;5073985;28;20509;-61
2023/01/28 01:12:56;;;;;;;21.88;15.43;;;0.50;78.60;;;;;;5072297;28;20036;-62
2023/01/28 01:15:22;;;;;;;20.92;14.65;;;0.40;78.70;;;;;;5076345;28;20111;-61
2023/01/28 01:17:49;;;;;;;22.05;15.05;;;0.40;78.80;;;;;;5080568;28;20107;-62
2023/01/28 01:20:16;;;;;;;24.50;16.17;;;0.30;78.90;;;;;;5072415;28;20032;-62
2023/01/28 01:22:42;;;;;;;25.63;16.13;;;0.30;79.00;;;;;;5072972;28;20036;-62
2023/01/28 01:25:08;;;;;;;23.77;16.20;;;0.20;79.10;;;;;;5071569;28;20032;-63
2023/01/28 01:27:34;;;;;;;22.80;16.05;;;0.20;79.10;;;;;;5067271;28;20183;-62
2023/01/28 01:30:00;;;;;;;23.23;15.68;;;0.10;79.10;;;;;;5072186;28;20033;-62
2023/01/28 01:32:31;;;;;;;21.33;15.00;;;0.10;79.30;;;;;;5072874;28;20032;-49
2023/01/28 01:34:57;;;;;;;20.52;14.57;;;0.10;79.30;;;;;;5072475;28;20487;-52
2023/01/28 01:37:22;;;;;;;23.48;15.40;;;0.10;79.30;;;;;;5064144;28;20502;-65
2023/01/28 01:39:48;;;;;;;22.25;15.07;;;0.10;79.60;;;;;;5082211;28;20028;-64
2023/01/28 01:42:14;;;;;;;21.70;14.45;;;0.00;79.40;;;;;;5074690;28;20032;-66
2023/01/28 01:44:58;;;;;;;23.58;15.95;;;0.00;79.40;;;;;;5073501;28;20060;-64
2023/01/28 01:48:06;;;;;;;22.40;14.18;;;0.00;79.40;;;;;;5074983;28;20119;-61
2023/01/28 01:50:55;;;;;;;23.70;15.52;;;0.00;79.50;;;;;;5064334;28;20043;-62
2023/01/28 01:53:22;;;;;;;21.67;15.40;;;0.10;79.60;;;;;;5071848;28;20081;-62
2023/01/28 01:55:51;;;;;;;24.70;16.20;;;0.10;80.30;;;;;;5068873;28;20025;-62
2023/01/28 01:58:21;;;;;;;24.55;15.20;;;0.10;79.50;;;;;;5076639;28;20078;-62
2023/01/28 02:00:47;;;;;;;24.45;15.65;;;0.20;79.40;;;;;;5072403;28;20040;-61
2023/01/28 02:03:15;;;;;;;20.60;14.48;;;0.20;79.30;;;;;;5070102;28;20097;-60
2023/01/28 02:05:40;;;;;;;23.98;16.38;;;0.20;79.20;;;;;;5083000;28;20469;-62
2023/01/28 02:08:22;;;;;;;20.80;15.18;;;0.30;79.40;;;;;;5071384;28;20058;-62
2023/01/28 02:11:03;;;;;;;21.23;15.73;;;0.30;79.30;;;;;;5071555;28;20525;-56
2023/01/28 02:13:41;;;;;;;21.73;14.75;;;0.40;78.90;;;;;;5072175;28;20033;-52
2023/01/28 02:16:07;;;;;;;24.40;16.20;;;0.40;78.80;;;;;;5080908;28;20089;-53
2023/01/28 02:18:34;;;;;;;20.42;14.95;;;0.40;78.70;;;;;;5082853;28;20028;-54
2023/01/28 02:21:09;;;;;;;23.90;14.32;;;0.40;78.70;;;;;;5072026;28;20158;-52
2023/01/28 02:24:18;;;;;;;23.55;15.05;;;0.50;78.60;;;;;;5071407;28;20072;-53
2023/01/28 02:27:08;;;;;;;20.58;14.57;;;0.40;78.40;;;;;;5064973;28;20486;-61
2023/01/28 02:29:45;;;;;;;20.27;13.85;;;0.40;78.60;;;;;;5063411;28;20035;-61
2023/01/28 02:32:20;;;;;;;21.50;14.95;;;0.40;78.50;;;;;;5071996;28;20575;-60
2023/01/28 02:35:06;;;;;;;21.73;14.43;;;0.40;78.50;;;;;;5069546;28;20103;-60
2023/01/28 02:37:48;;;;;;;20.88;14.73;;;0.50;78.60;;;;;;5070384;28;20024;-63
2023/01/28 02:40:21;;;;;;;19.60;13.85;;;0.50;78.50;;;;;;5069181;28;20485;-62
2023/01/28 02:42:47;;;;;;;18.58;13.45;;;0.40;78.60;;;;;;5082645;28;20029;-62
2023/01/28 02:45:15;;;;;;;22.77;15.00;;;0.40;78.50;;;;;;5067596;28;20039;-60
2023/01/28 02:47:56;;;;;;;21.52;14.77;;;0.40;78.40;;;;;;5068009;28;20641;-63
2023/01/28 02:50:24;;;;;;;18.30;14.00;;;0.40;78.40;;;;;;5071058;28;20449;-63
2023/01/28 02:55:56;;;;;;;19.83;13.88;;;0.30;78.40;;;;;;5070402;28;20513;-62
2023/01/28 02:58:25;;;;;;;23.65;15.27;;;0.30;78.60;;;;;;5070880;28;20474;-62
2023/01/28 03:01:17;;;;;;;22.98;15.35;;;0.20;78.60;;;;;;5067402;28;20032;-63
2023/01/28 03:03:57;;;;;;;25.02;15.25;;;0.20;78.80;;;;;;5070522;28;20047;-62
2023/01/28 03:06:34;;;;;;;21.00;15.05;;;0.10;78.90;;;;;;5067642;28;20419;-63
2023/01/28 03:09:21;;;;;;;24.92;15.43;;;0.10;78.90;;;;;;5070977;28;20021;-63
2023/01/28 03:38:17;;;;;;;24.38;16.02;;;-0.50;79.70;;;;;;5069128;28;20390;-63
2023/01/28 03:40:55;;;;;;;25.02;16.42;;;-0.60;79.70;;;;;;5070711;28;20036;-61
2023/01/28 03:43:22;;;;;;;26.30;16.73;;;-0.60;79.70;;;;;;5069715;28;20462;-61
2023/01/28 03:45:51;;;;;;;23.95;16.23;;;-0.60;79.80;;;;;;5070144;28;20119;-60
2023/01/28 03:48:25;;;;;;;23.60;15.60;;;-0.60;79.80;;;;;;5070496;28;20370;-61
2023/01/28 03:50:51;;;;;;;22.95;15.00;;;-0.60;79.80;;;;;;5065482;28;20497;-61
2023/01/28 03:53:18;;;;;;;23.13;16.25;;;-0.60;79.90;;;;;;5070070;28;20035;-58
2023/01/28 03:55:46;;;;;;;23.98;16.33;;;-0.70;79.90;;;;;;5070153;28;20170;-65
2023/01/28 03:58:12;;;;;;;23.65;16.08;;;-0.70;80.00;;;;;;5069979;28;20029;-65
2023/01/28 04:00:42;;;;;;;23.48;16.45;;;-0.70;80.00;;;;;;5071434;28;20367;-60
2023/01/28 04:03:18;;;;;;;22.08;15.30;;;-0.70;79.90;;;;;;5070044;28;20041;-60
2023/01/28 04:05:59;;;;;;;24.42;15.68;;;-0.70;80.00;;;;;;5071802;28;20024;-61
2023/01/28 04:08:24;;;;;;;22.58;15.13;;;-0.70;80.00;;;;;;5070177;28;20048;-60
2023/01/28 04:10:50;;;;;;;22.73;15.57;;;-0.70;80.10;;;;;;5062648;28;20024;-62
2023/01/28 04:13:17;;;;;;;21.77;15.60;;;-0.80;80.00;;;;;;5081560;28;20035;-62
2023/01/28 04:15:44;;;;;;;25.48;17.88;;;-0.80;80.00;;;;;;5069574;28;20017;-61
2023/01/28 04:18:10;;;;;;;23.58;16.20;;;-0.80;80.10;;;;;;5068450;28;20031;-62
2023/01/28 04:20:37;;;;;;;31.08;19.10;;;-0.80;80.20;;;;;;5068726;28;20479;-65
2023/01/28 04:23:03;;;;;;;28.55;17.70;;;-0.90;80.20;;;;;;5074134;28;20039;-62
2023/01/28 04:25:29;;;;;;;23.88;16.17;;;-0.90;80.40;;;;;;5073367;28;20021;-58
2023/01/28 04:27:55;;;;;;;28.20;16.85;;;-0.80;80.40;;;;;;5071508;28;20064;-60
2023/01/28 04:30:21;;;;;;;24.77;16.63;;;-0.80;80.20;;;;;;5069831;28;20110;-60
2023/01/28 04:32:49;;;;;;;26.50;18.13;;;-0.80;80.30;;;;;;5073889;28;20032;-60
2023/01/28 04:35:15;;;;;;;23.73;16.48;;;-0.80;80.20;;;;;;5073854;28;20386;-59
2023/01/28 04:37:41;;;;;;;24.67;16.50;;;-0.80;80.20;;;;;;5064711;28;20029;-61
2023/01/28 04:40:08;;;;;;;23.17;15.88;;;-0.80;80.20;;;;;;5074008;28;20115;-63
2023/01/28 04:42:33;;;;;;;22.60;15.75;;;-0.80;80.00;;;;;;5073811;28;20060;-62
2023/01/28 04:44:59;;;;;;;22.65;15.52;;;-0.80;80.00;;;;;;5078721;28;20125;-63
2023/01/28 04:47:24;;;;;;;24.30;16.42;;;-0.70;80.00;;;;;;5079992;28;20478;-61
2023/01/28 04:49:50;;;;;;;27.85;18.35;;;-0.70;79.90;;;;;;5073217;28;20027;-62
2023/01/28 04:52:16;;;;;;;23.08;15.68;;;-0.70;79.90;;;;;;5083425;28;20054;-62
2023/01/28 04:54:41;;;;;;;23.63;15.20;;;-0.70;79.90;;;;;;5068129;28;20032;-62
2023/01/28 04:57:07;;;;;;;24.85;16.70;;;-0.70;79.90;;;;;;5073471;28;20032;-61
2023/01/28 04:59:33;;;;;;;26.95;16.75;;;-0.70;80.00;;;;;;5066332;28;20029;-62
2023/01/28 05:01:58;;;;;;;21.45;15.13;;;-0.70;79.90;;;;;;5075505;28;20040;-54
2023/01/28 05:04:24;;;;;;;24.15;16.27;;;-0.70;79.80;;;;;;5072881;28;20041;-52
2023/01/28 05:06:50;;;;;;;24.13;14.88;;;-0.70;79.80;;;;;;5073174;28;20383;-58
2023/01/28 05:09:15;;;;;;;23.63;15.02;;;-0.70;79.80;;;;;;5072476;28;20078;-60
2023/01/28 05:11:41;;;;;;;25.77;15.98;;;-0.70;79.70;;;;;;5072892;28;20359;-62
2023/01/28 05:14:07;;;;;;;25.42;16.63;;;-0.70;79.70;;;;;;5073294;28;20056;-62
2023/01/28 05:16:33;;;;;;;23.38;16.83;;;-0.70;79.70;;;;;;5067133;28;20033;-52
2023/01/28 05:19:00;;;;;;;24.65;16.77;;;-0.80;79.60;;;;;;5072502;28;20055;-54
2023/01/28 05:21:26;;;;;;;24.27;17.00;;;-0.80;79.70;;;;;;5072797;28;20123;-61
2023/01/28 05:23:52;;;;;;;26.63;16.75;;;-0.80;79.80;;;;;;5076501;28;20153;-62
2023/01/28 05:26:17;;;;;;;25.08;17.30;;;-0.80;79.70;;;;;;5072298;28;20041;-62
2023/01/28 05:28:43;;;;;;;24.55;15.88;;;-0.80;79.70;;;;;;5081438;28;20028;-63
2023/01/28 05:31:09;;;;;;;23.92;16.88;;;-0.90;79.80;;;;;;5072830;28;20039;-62
2023/01/28 05:33:35;;;;;;;24.40;16.10;;;-0.90;79.80;;;;;;5072553;28;20047;-62
2023/01/28 05:36:01;;;;;;;24.98;16.73;;;-0.90;79.80;;;;;;5074926;28;20028;-60
2023/01/28 05:38:27;;;;;;;27.63;17.83;;;-0.90;80.00;;;;;;5069750;28;20429;-61
2023/01/28 05:40:52;;;;;;;24.42;17.20;;;-0.90;80.00;;;;;;5073069;28;20103;-62
2023/01/28 05:43:18;;;;;;;27.38;17.25;;;-0.90;79.90;;;;;;5072325;28;20059;-62
2023/01/28 05:45:44;;;;;;;27.65;17.88;;;-1.00;79.70;;;;;;5078276;28;20040;-63
2023/01/28 05:48:10;;;;;;;26.27;16.73;;;-1.00;79.80;;;;;;5073376;28;20039;-65
2023/01/28 05:50:35;;;;;;;25.50;16.88;;;-1.00;79.80;;;;;;5078093;28;20032;-63
2023/01/28 05:53:05;;;;;;;24.55;16.40;;;-1.00;79.80;;;;;;5076455;28;20042;-64
2023/01/28 05:55:30;;;;;;;26.75;16.85;;;-1.00;79.90;;;;;;5072313;28;20372;-62
2023/01/28 05:57:56;;;;;;;25.33;17.05;;;-1.00;79.70;;;;;;5072252;28;20035;-62
2023/01/28 06:00:22;;;;;;;25.25;16.40;;;-1.00;79.80;;;;;;5071988;28;20028;-62
2023/01/28 06:02:49;;;;;;;29.30;18.13;;;-1.00;79.70;;;;;;5071563;28;20509;-62
2023/01/28 06:05:15;;;;;;;27.58;18.08;;;-1.10;79.70;;;;;;5078368;28;20461;-63
2023/01/28 06:07:44;;;;;;;25.77;16.30;;;-1.10;79.80;;;;;;5071953;28;20060;-67
2023/01/28 06:10:10;;;;;;;29.55;18.50;;;-1.10;79.80;;;;;;5072521;28;20021;-67
2023/01/28 06:12:35;;;;;;;31.52;18.63;;;-1.10;79.80;;;;;;5069080;28;20028;-61
2023/01/28 06:15:01;;;;;;;28.88;18.58;;;-1.20;79.80;;;;;;5069934;28;20082;-60
2023/01/28 06:17:27;;;;;;;25.73;16.58;;;-1.20;79.70;;;;;;5078030;28;20024;-61
2023/01/28 06:19:52;;;;;;;28.30;18.17;;;-1.20;80.00;;;;;;5077211;28;20055;-62
2023/01/28 06:22:18;;;;;;;28.25;18.27;;;-1.20;80.00;;;;;;5076916;28;20094;-62
2023/01/28 06:24:44;;;;;;;24.92;16.67;;;-1.20;80.00;;;;;;5071400;28;20507;-63
2023/01/28 06:27:09;;;;;;;31.35;19.50;;;-1.20;80.00;;;;;;5071603;28;20025;-67
2023/01/28 06:29:35;;;;;;;25.30;16.65;;;-1.20;80.00;;;;;;5071053;28;20028;-65
2023/01/28 06:32:01;;;;;;;25.50;17.05;;;-1.20;79.80;;;;;;5065339;28;20036;-67
2023/01/28 06:34:26;;;;;;;23.35;16.27;;;-1.20;80.10;;;;;;5066949;28;20111;-66
2023/01/28 06:36:52;;;;;;;27.58;17.05;;;-1.20;80.10;;;;;;5065863;28;20032;-66
2023/01/28 06:39:20;;;;;;;24.52;16.67;;;-1.20;79.90;;;;;;5061701;28;20033;-64
2023/01/28 06:41:46;;;;;;;24.83;16.42;;;-1.20;79.90;;;;;;5061375;28;20153;-64
2023/01/28 06:44:11;;;;;;;25.55;16.48;;;-1.20;79.80;;;;;;5061663;28;20775;-66
2023/01/28 06:46:37;;;;;;;26.42;17.55;;;-1.20;79.70;;;;;;5059924;28;20065;-61
2023/01/28 06:49:03;;;;;;;26.02;17.27;;;-1.20;80.30;;;;;;5066638;28;20040;-61
2023/01/28 06:51:28;;;;;;;24.15;16.90;;;-1.20;79.90;;;;;;5062869;28;20459;-60
2023/01/28 06:53:54;;;;;;;29.13;18.30;;;-1.20;80.10;;;;;;5063000;28;20044;-60
2023/01/28 06:56:20;;;;;;;27.25;18.50;;;-1.20;80.00;;;;;;5066080;28;20032;-67
2023/01/28 06:58:45;;;;;;;24.40;17.25;;;-1.20;79.90;;;;;;5061667;28;20040;-66
2023/01/28 07:01:11;;;;;;;27.10;17.98;;;-1.20;79.80;;;;;;5059872;28;20078;-66
2023/01/28 07:03:36;;;;;;;28.58;18.20;;;-1.20;79.90;;;;;;5057574;28;20037;-65
2023/01/28 07:06:02;;;;;;;28.08;17.95;;;-1.20;79.80;;;;;;5064553;28;20048;-66
2023/01/28 07:08:28;;;;;;;25.30;16.85;;;-1.30;79.80;;;;;;5059319;28;20535;-65
2023/01/28 07:10:53;;;;;;;26.15;15.95;;;-1.20;79.90;;;;;;5059281;28;20028;-66
2023/01/28 07:13:19;;;;;;;24.90;15.80;;;-1.20;79.70;;;;;;5067086;28;20402;-65
2023/01/28 07:15:45;;;;;;;24.30;15.85;;;-1.20;79.80;;;;;;5063369;28;20064;-65
2023/01/28 07:18:10;;;;;;;26.52;17.23;;;-1.20;79.80;;;;;;5070740;28;20077;-66
2023/01/28 07:20:36;;;;;;;22.35;16.23;;;-1.20;79.50;;;;;;5059206;28;20020;-65
2023/01/28 07:23:02;;;;;;;27.25;16.65;;;-1.20;79.60;;;;;;5069029;28;20024;-67
2023/01/28 07:25:27;;;;;;;22.42;16.73;;;-1.20;79.70;;;;;;5065910;28;20028;-65
2023/01/28 07:27:53;;;;;;;26.00;16.40;;;-1.20;79.30;;;;;;5064673;28;20036;-65
2023/01/28 07:30:20;;;;;;;24.13;16.33;;;-1.20;79.40;;;;;;5061698;28;20380;-64
2023/01/28 07:32:46;;;;;;;22.38;15.98;;;-1.20;79.50;;;;;;5059607;28;20067;-65
2023/01/28 07:35:12;;;;;;;24.83;15.98;;;-1.20;79.30;;;;;;5066417;28;20409;-67
2023/01/28 07:37:38;;;;;;;24.13;17.58;;;-1.20;79.40;;;;;;5063402;28;20100;-67
2023/01/28 07:40:04;;;;;;;23.35;15.40;;;-1.20;79.30;;;;;;5067142;28;20438;-65
2023/01/28 07:42:30;;;;;;;23.38;15.82;;;-1.20;79.50;;;;;;5063193;28;20036;-65
2023/01/28 07:44:56;;;;;;;22.73;14.95;;;-1.20;79.50;;;;;;5064452;28;20378;-66
2023/01/28 07:47:21;;;;;;;20.45;15.27;;;-1.20;79.50;;;;;;5068679;28;20539;-66
2023/01/28 07:49:47;;;;;;;24.35;15.93;;;-1.20;79.60;;;;;;5062044;28;20494;-67
2023/01/28 07:52:13;;;;;;;26.85;17.05;;;-1.20;79.60;;;;;;5061755;28;20470;-63
2023/01/28 07:54:38;;;;;;;24.73;16.35;;;-1.20;79.50;;;;;;5057863;28;20478;-64
2023/01/28 07:57:08;;;;;;;22.50;15.15;;;-1.10;79.30;;;;;;5063647;28;20036;-63
2023/01/28 07:59:34;;;;;;;24.25;16.25;;;-1.10;80.00;;;;;;5100928;28;20429;-64
2023/01/28 08:02:00;;;;;;;23.75;16.83;;;-1.10;79.40;;;;;;5069318;28;20110;-65
2023/01/28 08:04:27;;;;;;;24.70;15.90;;;-1.10;79.50;;;;;;5066787;28;20048;-61
2023/01/28 08:06:53;;;;;;;21.80;14.93;;;-1.00;79.40;;;;;;5060491;28;20036;-66
2023/01/28 08:09:18;;;;;;;23.90;14.93;;;-1.00;79.30;;;;;;5060554;28;20059;-68
2023/01/28 08:11:44;;;;;;;20.90;15.02;;;-1.00;79.20;;;;;;5060396;28;20044;-63
2023/01/28 08:14:10;;;;;;;22.75;15.10;;;-1.00;79.20;;;;;;5062258;28;20036;-63
2023/01/28 08:16:36;;;;;;;22.67;15.00;;;-0.90;79.40;;;;;;5064360;28;20174;-62
2023/01/28 08:19:02;;;;;;;21.20;14.43;;;-0.90;79.30;;;;;;5063660;28;20111;-62
2023/01/28 08:21:27;;;;;;;23.33;14.52;;;-0.80;79.40;;;;;;5054294;28;20127;-62
2023/01/28 08:23:54;;;;;;;21.08;14.40;;;-0.70;79.40;;;;;;5056865;28;20521;-62
2023/01/28 08:26:20;;;;;;;26.05;16.15;;;-0.60;79.20;;;;;;5060927;28;20033;-63
2023/01/28 08:28:45;;;;;;;25.45;16.35;;;-0.60;78.80;;;;;;5060557;28;20035;-62
2023/01/28 08:31:11;;;;;;;24.35;15.93;;;-0.50;78.60;;;;;;5066297;28;20021;-61
2023/01/28 08:33:37;;;;;;;22.15;15.50;;;-0.50;78.60;;;;;;5060556;28;20037;-60
2023/01/28 08:36:03;;;;;;;22.17;15.32;;;-0.40;78.50;;;;;;5059319;28;20039;-61
2023/01/28 08:38:29;;;;;;;21.40;14.07;;;-0.40;78.50;;;;;;5065900;28;20031;-63
2023/01/28 08:40:56;;;;;;;20.42;13.48;;;-0.30;78.40;;;;;;5068601;28;20037;-64
2023/01/28 08:43:22;;;;;;;23.02;15.93;;;-0.20;78.40;;;;;;5067461;28;20123;-61
2023/01/28 08:45:49;;;;;;;20.83;14.05;;;-0.20;78.10;;;;;;5069485;28;20119;-54
2023/01/28 08:48:17;;;;;;;19.65;13.82;;;-0.10;77.90;;;;;;5069821;28;20039;-52
2023/01/28 08:50:43;;;;;;;19.08;13.38;;;-0.10;77.70;;;;;;5069488;28;20055;-64
2023/01/28 08:53:14;;;;;;;20.73;13.80;;;0.00;77.60;;;;;;5078889;28;20117;-66
2023/01/28 08:55:40;;;;;;;20.23;14.05;;;0.00;77.50;;;;;;5082198;28;20028;-65
2023/01/28 08:58:09;;;;;;;19.33;13.40;;;0.10;77.40;;;;;;5069112;28;20059;-67
2023/01/28 09:00:35;;;;;;;21.92;13.93;;;0.10;77.40;;;;;;5069546;28;20041;-62
2023/01/28 09:03:00;;;;;;;23.67;14.23;;;0.20;77.30;;;;;;5063470;28;20060;-62
2023/01/28 09:05:26;;;;;;;19.98;13.50;;;0.20;76.90;;;;;;5058098;28;20036;-62
2023/01/28 09:07:52;;;;;;;19.85;13.18;;;0.20;76.90;;;;;;5068593;28;20028;-62
2023/01/28 09:10:19;;;;;;;19.42;13.60;;;0.20;76.90;;;;;;5065083;28;20032;-63
2023/01/28 09:12:45;;;;;;;22.15;14.68;;;0.20;76.80;;;;;;5058373;28;20036;-62
2023/01/28 09:15:11;;;;;;;20.17;13.98;;;0.20;76.70;;;;;;5066209;28;20052;-62
2023/01/28 09:17:37;;;;;;;20.42;13.48;;;0.20;76.80;;;;;;5057002;28;20463;-62
2023/01/28 09:20:04;;;;;;;19.58;13.50;;;0.30;76.90;;;;;;5066399;28;20028;-62
2023/01/28 09:22:30;;;;;;;18.33;12.85;;;0.30;76.70;;;;;;5069146;28;20041;-62
2023/01/28 09:24:56;;;;;;;19.63;13.00;;;0.30;76.60;;;;;;5071853;28;20059;-62
2023/01/28 09:27:22;;;;;;;20.35;12.43;;;0.30;77.30;;;;;;5073280;28;20056;-63
2023/01/28 09:29:47;;;;;;;20.40;13.65;;;0.30;76.60;;;;;;5072957;28;20036;-63
2023/01/28 09:32:13;;;;;;;20.58;13.43;;;0.30;76.50;;;;;;5072796;28;20028;-63
2023/01/28 09:34:38;;;;;;;17.95;12.82;;;0.40;76.60;;;;;;5071152;28;20470;-62
2023/01/28 09:37:04;;;;;;;19.38;12.88;;;0.30;76.40;;;;;;5073066;28;20028;-63
2023/01/28 09:39:30;;;;;;;19.52;12.60;;;0.40;76.40;;;;;;5073101;28;20171;-63
2023/01/28 09:42:36;;;;;;;19.10;13.35;;;0.40;76.30;;;;;;5077341;28;20420;-62
2023/01/28 09:45:16;;;;;;;19.77;13.00;;;0.40;76.20;;;;;;5073239;28;20474;-62
2023/01/28 09:47:51;;;;;;;20.70;14.13;;;0.40;76.40;;;;;;5072544;28;20508;-53
2023/01/28 09:50:26;;;;;;;18.27;13.57;;;0.40;76.60;;;;;;5072380;28;20505;-55
2023/01/28 09:52:56;;;;;;;18.73;13.30;;;0.40;76.40;;;;;;5085090;28;20036;-51
2023/01/28 09:55:35;;;;;;;19.17;12.68;;;0.40;76.30;;;;;;5091628;28;20150;-51
2023/01/28 09:58:04;;;;;;;18.92;13.10;;;0.40;76.30;;;;;;5070831;28;20020;-61
2023/01/28 10:00:44;;;;;;;20.65;13.48;;;0.40;76.30;;;;;;5072148;28;20371;-58
2023/01/28 10:03:46;;;;;;;21.35;13.27;;;0.40;76.30;;;;;;5071406;28;20060;-61
2023/01/28 10:06:49;;;;;;;19.80;13.00;;;0.40;77.00;;;;;;5076694;28;20025;-52
2023/01/28 10:09:23;;;;;;;19.90;13.60;;;0.40;76.40;;;;;;5070362;28;20036;-51
2023/01/28 10:12:07;;;;;;;19.30;12.70;;;0.40;76.50;;;;;;5070776;28;20090;-62
2023/01/28 10:14:52;;;;;;;24.05;15.13;;;0.40;76.40;;;;;;5066390;28;20059;-62
2023/01/28 10:17:42;;;;;;;20.85;15.00;;;0.40;76.50;;;;;;5069940;28;20478;-62
2023/01/28 10:20:10;;;;;;;19.52;13.80;;;0.40;76.60;;;;;;5073853;28;20316;-62
2023/01/28 10:22:45;;;;;;;18.77;13.02;;;0.40;76.60;;;;;;5071462;28;20028;-62
2023/01/28 10:25:20;;;;;;;19.80;13.40;;;0.40;76.50;;;;;;5069472;28;20033;-62
2023/01/28 10:27:48;;;;;;;18.40;12.98;;;0.50;76.70;;;;;;5062165;28;20052;-62
2023/01/28 10:30:19;;;;;;;16.90;12.75;;;0.50;76.70;;;;;;5068863;28;20036;-61
2023/01/28 10:32:59;;;;;;;19.23;13.15;;;0.50;76.60;;;;;;5072094;28;20047;-61
2023/01/28 10:35:26;;;;;;;16.88;12.07;;;0.50;76.40;;;;;;5074547;28;20036;-63
2023/01/28 10:38:00;;;;;;;21.52;13.02;;;0.60;76.40;;;;;;5070655;28;20020;-62
2023/01/28 10:40:26;;;;;;;17.63;12.52;;;0.50;76.30;;;;;;5071138;28;20101;-55
2023/01/28 10:42:51;;;;;;;18.65;12.43;;;0.60;76.40;;;;;;5070862;28;20060;-54
2023/01/28 10:45:28;;;;;;;22.00;13.95;;;0.60;76.50;;;;;;5068303;28;20024;-50
2023/01/28 10:48:34;;;;;;;18.50;12.60;;;0.60;76.50;;;;;;5070695;28;20379;-50
2023/01/28 10:51:03;;;;;;;20.77;13.43;;;0.60;76.40;;;;;;5024855;28;20037;-62
2023/01/28 10:53:40;;;;;;;22.90;13.20;;;0.60;76.60;;;;;;5026866;28;20053;-62
2023/01/28 10:56:14;;;;;;;19.80;13.48;;;0.60;76.50;;;;;;5043637;28;20115;-58
2023/01/28 10:59:18;;;;;;;18.85;13.18;;;0.60;76.30;;;;;;5080283;28;20032;-61
2023/01/28 11:01:49;;;;;;;20.20;14.02;;;0.70;76.40;;;;;;5071941;28;20487;-61
2023/01/28 11:04:20;;;;;;;20.05;12.40;;;0.70;76.40;;;;;;5069205;28;20068;-59
2023/01/28 11:07:04;;;;;;;19.05;12.48;;;0.70;76.40;;;;;;5066176;28;20025;-54
2023/01/28 11:09:32;;;;;;;21.60;14.15;;;0.80;76.50;;;;;;5070767;28;20016;-50
2023/01/28 11:12:09;;;;;;;18.40;12.23;;;0.80;76.50;;;;;;5064090;28;20024;-49
2023/01/28 11:14:35;;;;;;;18.40;13.60;;;0.80;76.50;;;;;;5073875;28;20082;-55
2023/01/28 11:17:01;;;;;;;21.70;13.30;;;0.80;76.50;;;;;;5074703;28;20047;-60
2023/01/28 11:19:33;;;;;;;19.52;14.40;;;0.90;76.20;;;;;;5070003;28;20020;-60
2023/01/28 11:22:00;;;;;;;19.73;14.40;;;0.90;76.10;;;;;;5072285;28;20142;-61
2023/01/28 11:24:29;;;;;;;19.95;13.32;;;0.90;76.10;;;;;;5069954;28;20530;-60
2023/01/28 11:26:57;;;;;;;22.40;14.38;;;1.00;76.10;;;;;;5069200;28;20043;-59
2023/01/28 11:29:23;;;;;;;21.15;13.23;;;1.00;76.00;;;;;;5078245;28;20025;-59
2023/01/28 11:31:49;;;;;;;20.13;14.35;;;1.00;75.90;;;;;;5068243;28;20532;-60
2023/01/28 11:34:17;;;;;;;18.13;13.35;;;1.00;76.20;;;;;;5070833;28;20064;-60
2023/01/28 11:37:00;;;;;;;18.20;13.35;;;1.00;76.10;;;;;;5068355;28;20024;-61
2023/01/28 11:39:28;;;;;;;18.80;12.75;;;1.00;75.90;;;;;;5065259;28;20027;-59
2023/01/28 11:42:01;;;;;;;18.83;12.50;;;1.00;76.00;;;;;;5074402;28;20469;-61
2023/01/28 11:44:27;;;;;;;18.08;12.70;;;1.00;76.60;;;;;;5059833;28;20049;-61
2023/01/28 11:47:14;;;;;;;20.35;13.07;;;1.10;76.00;;;;;;5068725;28;20063;-61
2023/01/28 11:50:01;;;;;;;19.42;13.00;;;1.10;75.90;;;;;;5069981;28;20428;-61
2023/01/28 11:52:45;;;;;;;19.95;12.48;;;1.10;75.80;;;;;;5067757;28;20024;-61
2023/01/28 11:55:29;;;;;;;21.35;14.45;;;1.20;75.80;;;;;;5068325;28;20020;-60
2023/01/28 11:58:06;;;;;;;20.63;13.55;;;1.20;75.90;;;;;;5068139;28;20572;-61
2023/01/28 12:00:31;;;;;;;20.02;13.95;;;1.20;75.70;;;;;;5068591;28;20107;-61
2023/01/28 12:03:15;;;;;;;17.70;12.98;;;1.30;75.80;;;;;;5067754;28;20569;-59
2023/01/28 12:06:09;;;;;;;18.10;12.43;;;1.40;75.70;;;;;;5059732;28;20032;-59
2023/01/28 12:08:49;;;;;;;17.33;12.10;;;1.40;75.60;;;;;;5059810;28;20464;-61
2023/01/28 12:11:15;;;;;;;17.10;12.90;;;1.40;75.70;;;;;;5067064;28;20063;-60
2023/01/28 12:14:09;;;;;;;18.75;13.40;;;1.40;75.70;;;;;;5076054;28;20471;-58
2023/01/28 12:16:49;;;;;;;18.25;12.93;;;1.40;75.70;;;;;;5069825;28;20025;-51
2023/01/28 12:19:50;;;;;;;19.00;12.63;;;1.40;75.70;;;;;;5069934;28;20476;-50
2023/01/28 12:22:39;;;;;;;16.75;11.82;;;1.40;75.60;;;;;;5048886;28;20486;-49
2023/01/28 12:25:26;;;;;;;17.17;12.02;;;1.40;75.60;;;;;;5067488;28;20076;-52
2023/01/28 12:28:15;;;;;;;16.38;11.15;;;1.50;75.70;;;;;;5068759;28;20384;-60
2023/01/28 12:31:04;;;;;;;17.85;12.40;;;1.50;75.70;;;;;;5067607;28;20025;-53
2023/01/28 12:33:50;;;;;;;18.20;12.13;;;1.50;75.60;;;;;;5073907;28;20032;-52
2023/01/28 12:36:34;;;;;;;18.90;12.05;;;1.50;75.70;;;;;;5067352;28;20079;-54
2023/01/28 12:39:02;;;;;;;16.35;11.43;;;1.40;75.30;;;;;;5074035;28;20024;-53
2023/01/28 12:41:42;;;;;;;17.25;12.45;;;1.40;75.30;;;;;;5080849;28;20493;-62
2023/01/28 12:44:19;;;;;;;16.38;11.60;;;1.40;75.20;;;;;;5073128;28;20041;-62
2023/01/28 12:47:00;;;;;;;17.33;12.05;;;1.40;75.60;;;;;;5069695;28;20062;-62
2023/01/28 12:49:47;;;;;;;15.77;11.70;;;1.40;75.40;;;;;;5073816;28;20466;-62
2023/01/28 12:52:22;;;;;;;16.08;11.23;;;1.50;75.50;;;;;;5073562;28;20040;-62
2023/01/28 12:54:59;;;;;;;17.83;12.50;;;1.50;75.40;;;;;;5077259;28;20560;-61
2023/01/28 12:57:30;;;;;;;15.70;11.05;;;1.60;75.30;;;;;;5077701;28;20020;-65
2023/01/28 13:00:14;;;;;;;14.60;11.07;;;1.60;75.10;;;;;;5084727;28;20117;-66
2023/01/28 13:02:44;;;;;;;17.40;12.65;;;1.60;75.20;;;;;;5073441;28;20296;-62
2023/01/28 13:05:13;;;;;;;19.63;12.70;;;1.70;75.10;;;;;;5072763;28;20028;-62
2023/01/28 13:07:53;;;;;;;17.58;11.90;;;1.60;74.80;;;;;;5073855;28;20066;-61
2023/01/28 13:10:31;;;;;;;17.45;11.98;;;1.60;74.80;;;;;;5071129;28;20378;-61
2023/01/28 13:12:58;;;;;;;18.00;12.32;;;1.60;74.90;;;;;;5069742;28;20368;-62
2023/01/28 13:15:24;;;;;;;18.15;11.85;;;1.60;75.00;;;;;;5073382;28;20025;-61
2023/01/28 13:18:06;;;;;;;16.60;11.23;;;1.50;75.20;;;;;;5073336;28;20032;-61
2023/01/28 13:20:45;;;;;;;14.40;10.65;;;1.60;75.10;;;;;;5072254;28;20039;-62